createdAt,value
2018-06-07T00:00:34.681Z,55.50
2018-06-07T00:07:40.920Z,55.60
2018-06-07T00:11:14.166Z,55.60
2018-06-07T00:14:47.399Z,55.70
2018-06-07T00:18:20.639Z,55.90
2018-06-07T00:21:53.861Z,56.00
2018-06-07T00:25:27.066Z,56.10
2018-06-07T00:29:00.349Z,56.20
2018-06-07T00:32:33.675Z,56.20
2018-06-07T00:36:06.891Z,56.20
2018-06-07T00:39:40.125Z,56.40
2018-06-07T00:43:13.356Z,56.60
2018-06-07T00:46:46.591Z,56.80
2018-06-07T00:50:19.892Z,57.10
2018-06-07T00:53:55.367Z,57.40
2018-06-07T00:57:28.929Z,57.60
2018-06-07T01:01:02.301Z,57.80
2018-06-07T01:04:35.547Z,57.90
2018-06-07T01:08:08.776Z,58.10
2018-06-07T01:11:42.023Z,58.40
2018-06-07T01:15:15.230Z,58.60
2018-06-07T01:22:21.456Z,59.10
2018-06-07T01:25:54.995Z,59.20
2018-06-07T01:29:39.608Z,59.60
2018-06-07T01:36:56.939Z,60.30
2018-06-07T01:44:03.448Z,60.90
2018-06-07T01:51:09.731Z,61.00
2018-06-07T01:54:42.955Z,60.90
2018-06-07T01:58:16.224Z,60.60
2018-06-07T02:01:49.464Z,60.50
2018-06-07T02:05:22.707Z,60.20
2018-06-07T02:08:56.012Z,60.10
2018-06-07T02:12:29.284Z,60.40
2018-06-07T02:16:02.505Z,60.70
2018-06-07T02:19:35.754Z,61.00
2018-06-07T02:23:08.987Z,62.20
2018-06-07T02:26:42.216Z,61.50
2018-06-07T02:30:15.442Z,62.50
2018-06-07T02:33:48.677Z,61.90
2018-06-07T02:37:21.924Z,62.00
2018-06-07T02:40:55.162Z,62.10
2018-06-07T02:44:28.405Z,62.20
2018-06-07T02:48:01.679Z,62.40
2018-06-07T02:51:34.906Z,62.60
2018-06-07T02:55:08.129Z,62.60
2018-06-07T03:02:14.963Z,62.70
2018-06-07T03:05:48.190Z,62.60
2018-06-07T03:09:21.529Z,62.40
2018-06-07T03:12:54.755Z,62.10
2018-06-07T03:16:28.010Z,62.00
2018-06-07T03:20:01.252Z,61.90
2018-06-07T03:23:34.471Z,61.70
2018-06-07T03:27:07.707Z,61.60
2018-06-07T03:30:40.991Z,61.60
2018-06-07T03:34:14.199Z,61.60
2018-06-07T03:37:47.421Z,61.60
2018-06-07T03:41:20.693Z,61.60
2018-06-07T03:44:53.919Z,61.80
2018-06-07T03:48:27.163Z,61.90
2018-06-07T03:52:00.403Z,61.90
2018-06-07T03:55:33.655Z,61.90
2018-06-07T03:59:06.899Z,61.90
2018-06-07T04:02:40.148Z,61.70
2018-06-07T04:13:19.412Z,61.00
2018-06-07T04:16:52.647Z,61.00
2018-06-07T04:20:26.400Z,61.00
2018-06-07T04:23:59.659Z,60.20
2018-06-07T04:27:32.965Z,60.00
2018-06-07T04:31:06.267Z,59.80
2018-06-07T04:34:39.613Z,59.80
2018-06-07T04:38:12.891Z,60.00
2018-06-07T04:41:46.143Z,59.90
2018-06-07T04:48:52.375Z,60.10
2018-06-07T04:52:25.591Z,60.50
2018-06-07T04:55:58.926Z,60.60
2018-06-07T05:03:05.233Z,60.70
2018-06-07T05:10:12.179Z,59.90
2018-06-07T05:13:45.402Z,59.80
2018-06-07T05:17:18.688Z,59.20
2018-06-07T05:20:51.903Z,59.30
2018-06-07T05:24:25.155Z,59.30
2018-06-07T05:27:58.380Z,59.20
2018-06-07T05:31:31.607Z,59.10
2018-06-07T05:35:05.039Z,59.10
2018-06-07T05:38:38.305Z,59.00
2018-06-07T05:42:11.681Z,59.40
2018-06-07T05:45:44.916Z,59.60
2018-06-07T05:49:18.164Z,59.60
2018-06-07T05:52:51.412Z,59.50
2018-06-07T05:56:24.621Z,59.50
2018-06-07T05:59:57.878Z,59.50
2018-06-07T06:03:31.139Z,59.50
2018-06-07T06:10:37.452Z,59.30
2018-06-07T06:14:23.782Z,59.10
2018-06-07T06:17:57.097Z,58.70
2018-06-07T06:21:30.324Z,58.40
2018-06-07T06:25:03.628Z,58.10
2018-06-07T06:28:36.867Z,57.20
2018-06-07T06:32:10.108Z,56.60
2018-06-07T06:35:43.412Z,56.40
2018-06-07T06:39:16.670Z,55.70
2018-06-07T06:42:49.891Z,55.00
2018-06-07T06:46:23.136Z,54.80
2018-06-07T06:49:56.378Z,54.30
2018-06-07T06:53:29.619Z,54.00
2018-06-07T06:57:03.064Z,53.70
2018-06-07T07:04:09.258Z,53.10
2018-06-07T07:07:42.521Z,53.60
2018-06-07T07:14:48.762Z,53.20
2018-06-07T07:18:21.972Z,52.30
2018-06-07T07:21:55.195Z,51.90
2018-06-07T07:25:28.419Z,51.50
2018-06-07T07:29:01.676Z,51.20
2018-06-07T07:32:34.911Z,50.80
2018-06-07T07:36:08.132Z,50.30
2018-06-07T07:43:14.384Z,49.60
2018-06-07T07:46:47.646Z,49.50
2018-06-07T07:50:20.916Z,49.40
2018-06-07T07:57:27.139Z,49.60
2018-06-07T08:01:00.468Z,49.00
2018-06-07T08:04:33.716Z,49.10
2018-06-07T08:11:39.965Z,49.60
2018-06-07T08:15:13.209Z,49.40
2018-06-07T08:18:46.427Z,49.20
2018-06-07T08:22:19.695Z,48.80
2018-06-07T08:25:53.005Z,48.10
2018-06-07T08:29:26.308Z,47.70
2018-06-07T08:36:32.584Z,48.40
2018-06-07T08:40:05.807Z,47.80
2018-06-07T08:43:39.107Z,48.10
2018-06-07T08:47:12.335Z,48.50
2018-06-07T08:50:45.634Z,47.90
2018-06-07T08:54:18.839Z,47.80
2018-06-07T08:57:52.084Z,48.00
2018-06-07T09:01:25.459Z,48.50
2018-06-07T09:04:58.692Z,48.80
2018-06-07T09:08:31.904Z,48.80
2018-06-07T09:15:38.187Z,48.40
2018-06-07T09:19:11.491Z,48.40
2018-06-07T09:22:44.812Z,48.20
2018-06-07T09:26:18.044Z,48.40
2018-06-07T09:29:51.304Z,48.50
2018-06-07T09:33:24.615Z,48.40
2018-06-07T09:36:57.832Z,48.20
2018-06-07T09:40:31.143Z,47.60
2018-06-07T09:44:04.428Z,47.30
2018-06-07T09:47:37.739Z,46.50
2018-06-07T09:51:10.976Z,45.70
2018-06-07T09:54:44.276Z,45.60
2018-06-07T09:58:17.536Z,45.70
2018-06-07T10:01:50.753Z,44.90
2018-06-07T10:05:24.115Z,44.90
2018-06-07T10:08:57.347Z,45.00
2018-06-07T10:12:30.573Z,45.00
2018-06-07T10:16:04.155Z,44.60
2018-06-07T10:19:37.471Z,43.90
2018-06-07T10:23:10.830Z,43.80
2018-06-07T10:26:44.115Z,44.00
2018-06-07T10:33:50.433Z,43.90
2018-06-07T10:37:23.752Z,43.30
2018-06-07T10:40:56.999Z,42.50
2018-06-07T10:48:03.521Z,41.20
2018-06-07T10:58:42.930Z,41.70
2018-06-07T11:02:16.192Z,41.80
2018-06-07T11:05:49.489Z,41.80
2018-06-07T11:09:22.762Z,41.70
2018-06-07T11:12:56.152Z,41.00
2018-06-07T11:16:29.440Z,40.70
2018-06-07T11:20:02.697Z,40.00
2018-06-07T11:23:36.215Z,39.90
2018-06-07T11:30:42.440Z,40.00
2018-06-07T11:34:15.809Z,40.00
2018-06-07T11:37:49.069Z,39.60
2018-06-07T11:41:22.316Z,39.80
2018-06-07T11:44:55.812Z,40.00
2018-06-07T11:52:02.261Z,40.00
2018-06-07T11:55:35.549Z,40.20
2018-06-07T11:59:08.803Z,39.90
2018-06-07T12:02:42.053Z,39.50
2018-06-07T12:06:15.474Z,39.60
2018-06-07T12:09:48.767Z,39.70
2018-06-07T12:13:22.037Z,39.60
2018-06-07T12:16:55.315Z,39.40
2018-06-07T12:24:01.769Z,40.50
2018-06-07T12:31:08.187Z,40.40
2018-06-07T12:34:41.493Z,40.30
2018-06-07T12:38:14.824Z,39.90
2018-06-07T12:41:48.130Z,39.70
2018-06-07T12:48:54.503Z,39.50
2018-06-07T12:52:27.756Z,39.00
2018-06-07T12:56:01.092Z,39.20
2018-06-07T12:59:34.403Z,39.30
2018-06-07T13:03:08.535Z,39.70
2018-06-07T13:10:14.764Z,39.60
2018-06-07T13:13:47.991Z,39.60
2018-06-07T13:17:22.271Z,39.90
2018-06-07T13:20:56.375Z,39.80
2018-06-07T13:28:02.845Z,40.60
2018-06-07T13:31:36.919Z,41.00
2018-06-07T13:35:10.260Z,41.30
2018-06-07T13:38:43.520Z,41.30
2018-06-07T13:42:16.993Z,41.00
2018-06-07T13:45:50.316Z,41.10
2018-06-07T13:49:23.652Z,41.40
2018-06-07T13:52:56.925Z,41.90
2018-06-07T13:56:30.556Z,42.20
2018-06-07T14:00:03.936Z,42.50
2018-06-07T14:03:37.229Z,43.10
2018-06-07T14:07:10.487Z,45.40
2018-06-07T14:10:43.819Z,47.20
2018-06-07T14:14:17.092Z,48.40
2018-06-07T14:17:50.338Z,49.30
2018-06-07T14:21:23.808Z,49.70
2018-06-07T14:24:57.147Z,50.10
2018-06-07T14:28:30.440Z,50.40
2018-06-07T14:32:03.710Z,50.70
2018-06-07T14:35:36.997Z,51.00
2018-06-07T14:39:10.407Z,50.90
2018-06-07T14:42:43.672Z,50.70
2018-06-07T14:46:16.935Z,50.40
2018-06-07T14:53:23.260Z,49.90
2018-06-07T14:56:56.607Z,49.80
2018-06-07T15:00:29.934Z,49.10
2018-06-07T15:07:36.351Z,49.00
2018-06-07T15:11:09.631Z,50.00
2018-06-07T15:14:42.889Z,50.80
2018-06-07T15:18:16.209Z,51.40
2018-06-07T15:21:49.497Z,51.70
2018-06-07T15:25:22.780Z,52.30
2018-06-07T15:28:56.025Z,52.30
2018-06-07T15:32:29.253Z,52.20
2018-06-07T15:36:02.515Z,52.20
2018-06-07T15:39:36.203Z,52.50
2018-06-07T15:43:09.485Z,52.70
2018-06-07T15:46:42.760Z,52.90
2018-06-07T15:50:16.056Z,52.20
2018-06-07T15:53:52.648Z,52.10
2018-06-07T15:57:25.949Z,52.50
2018-06-07T16:00:59.247Z,52.40
2018-06-07T16:04:32.524Z,52.10
2018-06-07T16:11:38.719Z,53.50
2018-06-07T16:15:11.959Z,53.90
2018-06-07T16:18:45.175Z,54.10
2018-06-07T16:22:18.410Z,54.60
2018-06-07T16:29:24.618Z,54.60
2018-06-07T16:32:57.814Z,54.30
2018-06-07T16:36:31.053Z,54.30
2018-06-07T16:40:04.316Z,54.50
2018-06-07T16:43:37.545Z,54.80
2018-06-07T16:47:10.771Z,54.50
2018-06-07T16:50:43.986Z,53.90
2018-06-07T16:54:17.222Z,53.60
2018-06-07T16:57:50.427Z,53.90
2018-06-07T17:01:23.659Z,54.30
2018-06-07T17:04:56.881Z,54.80
2018-06-07T17:08:30.106Z,55.20
2018-06-07T17:12:03.340Z,53.60
2018-06-07T17:15:36.579Z,53.30
2018-06-07T17:19:09.808Z,53.20
2018-06-07T17:26:16.090Z,50.70
2018-06-07T17:29:49.339Z,50.60
2018-06-07T17:33:22.563Z,50.80
2018-06-07T17:36:55.795Z,50.40
2018-06-07T17:40:29.023Z,50.50
2018-06-07T17:44:02.266Z,50.50
2018-06-07T17:47:35.493Z,50.60
2018-06-07T17:51:08.743Z,50.60
2018-06-07T17:54:42.044Z,50.40
2018-06-07T17:58:15.313Z,50.40
2018-06-07T18:01:48.557Z,50.60
2018-06-07T18:05:21.786Z,51.00
2018-06-07T18:08:55.064Z,51.20
2018-06-07T18:12:28.349Z,51.60
2018-06-07T18:16:01.641Z,51.80
2018-06-07T18:19:34.912Z,52.50
2018-06-07T18:23:08.123Z,52.20
2018-06-07T18:26:41.343Z,52.20
2018-06-07T18:30:14.572Z,52.50
2018-06-07T18:33:47.810Z,52.60
2018-06-07T18:37:21.051Z,52.90
2018-06-07T18:40:54.303Z,52.90
2018-06-07T18:44:27.540Z,52.90
2018-06-07T18:48:00.794Z,53.00
2018-06-07T18:51:34.008Z,53.10
2018-06-07T18:55:07.236Z,53.20
2018-06-07T18:58:40.504Z,53.30
2018-06-07T19:02:13.776Z,53.10
2018-06-07T19:09:25.296Z,54.20
2018-06-07T19:16:31.523Z,55.10
2018-06-07T19:20:10.632Z,55.40
2018-06-07T19:23:43.911Z,55.70
2018-06-07T19:27:22.388Z,56.00
2018-06-07T19:30:55.615Z,56.30
2018-06-07T19:34:34.223Z,56.50
2018-06-07T19:38:07.468Z,56.80
2018-06-07T19:42:15.351Z,57.20
2018-06-07T19:45:48.575Z,57.80
2018-06-07T19:49:21.880Z,58.40
2018-06-07T19:56:28.124Z,59.30
2018-06-07T20:00:01.371Z,59.60
2018-06-07T20:03:34.611Z,60.10
2018-06-07T20:07:07.838Z,60.50
2018-06-07T20:10:41.128Z,60.90
2018-06-07T20:14:14.413Z,61.10
2018-06-07T20:21:20.630Z,61.20
2018-06-07T20:24:53.863Z,61.40
2018-06-07T20:28:27.111Z,61.80
2018-06-07T20:32:00.344Z,62.80
2018-06-07T20:35:33.561Z,62.10
2018-06-07T20:39:08.619Z,62.40
2018-06-07T20:46:14.972Z,62.90
2018-06-07T20:49:48.227Z,63.10
2018-06-07T20:53:21.453Z,63.50
2018-06-07T20:56:54.679Z,63.90
2018-06-07T21:00:27.908Z,64.20
2018-06-07T21:04:01.153Z,64.40
2018-06-07T21:07:34.387Z,64.90
2018-06-07T21:11:07.663Z,64.80
2018-06-07T21:14:40.865Z,64.80
2018-06-07T21:18:14.096Z,64.90
2018-06-07T21:21:47.383Z,65.20
2018-06-07T21:25:20.602Z,65.60
2018-06-07T21:28:53.839Z,65.80
2018-06-07T21:32:27.083Z,66.00
2018-06-07T21:36:00.329Z,66.20
2018-06-07T21:39:33.546Z,66.20
2018-06-07T21:43:06.799Z,66.20
2018-06-07T21:46:40.055Z,66.10
2018-06-07T21:50:13.297Z,66.00
2018-06-07T21:57:19.516Z,66.20
2018-06-07T22:00:52.754Z,66.30
2018-06-07T22:04:25.980Z,66.40
2018-06-07T22:07:59.203Z,66.40
2018-06-07T22:11:32.436Z,66.30
2018-06-07T22:15:05.735Z,66.40
2018-06-07T22:18:38.956Z,66.50
2018-06-07T22:22:12.190Z,66.90
2018-06-07T22:25:45.435Z,67.10
2018-06-07T22:29:18.719Z,67.10
2018-06-07T22:32:51.948Z,67.40
2018-06-07T22:36:25.175Z,68.00
2018-06-07T22:39:58.392Z,68.20
2018-06-07T22:43:31.627Z,68.40
2018-06-07T22:47:04.870Z,68.80
2018-06-07T22:50:38.084Z,69.00
2018-06-07T22:57:44.352Z,69.40
2018-06-07T23:01:17.606Z,69.50
2018-06-07T23:04:50.811Z,69.70
2018-06-07T23:08:24.046Z,69.80
2018-06-07T23:11:57.272Z,69.80
2018-06-07T23:15:30.482Z,70.20
2018-06-07T23:22:36.671Z,70.50
2018-06-07T23:26:09.907Z,70.50
2018-06-07T23:29:43.124Z,70.50
2018-06-07T23:33:16.356Z,70.50
2018-06-07T23:36:49.563Z,70.40
2018-06-07T23:43:55.743Z,71.30
2018-06-07T23:47:28.971Z,71.50
2018-06-07T23:51:02.197Z,71.70
2018-06-07T23:54:35.415Z,71.70
2018-06-07T23:58:08.684Z,71.80
